Time;durP1;ratioP1;P1;durP2;ratioP2;P2;SDS_P1;SDS_P2;PMS_P1;PMS_P2;Temp;Humidity;BMP_temperature;BMP_pressure;BME280_temperature;BME280_humidity;BME280_pressure;Samples;Min_cycle;Max_cycle;Signal;HPM_P1;HPM_P2
2022/08/21 00:00:45;;;;;;;;;;;21.70;49.00;;;;;;489998;242;1524;-50
2022/08/21 00:02:46;;;;;;;;;;;21.70;49.00;;;;;;489824;242;1229;-50
2022/08/21 00:04:48;;;;;;;;;;;21.70;49.00;;;;;;489845;242;1201;-50
2022/08/21 00:06:49;;;;;;;;;;;21.70;49.00;;;;;;490254;242;1271;-50
2022/08/21 00:08:50;;;;;;;;;;;21.70;49.00;;;;;;490259;242;1283;-50
2022/08/21 00:10:52;;;;;;;;;;;21.70;49.10;;;;;;489808;242;2217;-50
2022/08/21 00:12:53;;;;;;;;;;;21.70;49.10;;;;;;490246;242;1266;-51
2022/08/21 00:14:54;;;;;;;;;;;21.70;49.10;;;;;;489722;242;1380;-50
2022/08/21 00:16:56;;;;;;;;;;;21.70;49.00;;;;;;489938;242;1236;-50
2022/08/21 00:18:57;;;;;;;;;;;21.70;49.00;;;;;;490080;242;1528;-50
2022/08/21 00:20:58;;;;;;;;;;;21.70;49.00;;;;;;490018;242;1215;-50
2022/08/21 00:23:00;;;;;;;;;;;21.70;49.00;;;;;;489812;242;1302;-50
2022/08/21 00:25:02;;;;;;;;;;;21.70;49.00;;;;;;490271;242;1290;-50
2022/08/21 00:27:02;;;;;;;;;;;21.70;49.00;;;;;;490271;242;2010;-51
2022/08/21 00:29:04;;;;;;;;;;;21.70;49.10;;;;;;490005;242;1277;-49
2022/08/21 00:31:05;;;;;;;;;;;21.70;49.10;;;;;;489815;242;2200;-50
2022/08/21 00:33:06;;;;;;;;;;;21.70;49.10;;;;;;490286;242;1287;-50
2022/08/21 00:35:08;;;;;;;;;;;21.70;49.10;;;;;;489877;242;1337;-50
2022/08/21 00:37:09;;;;;;;;;;;21.70;49.10;;;;;;489825;242;1343;-50
2022/08/21 00:39:10;;;;;;;;;;;21.70;49.10;;;;;;490044;242;1261;-50
2022/08/21 00:41:12;;;;;;;;;;;21.70;49.10;;;;;;489814;242;1327;-50
2022/08/21 00:43:13;;;;;;;;;;;21.70;49.10;;;;;;490274;242;1984;-50
2022/08/21 00:45:15;;;;;;;;;;;21.70;49.10;;;;;;490290;242;1286;-50
2022/08/21 00:47:16;;;;;;;;;;;21.70;49.10;;;;;;490299;242;1279;-50
2022/08/21 00:49:17;;;;;;;;;;;21.70;49.00;;;;;;490116;242;1245;-50
2022/08/21 00:51:22;;;;;;;;;;;21.70;49.10;;;;;;489812;242;2205;-50
2022/08/21 00:53:21;;;;;;;;;;;21.70;49.10;;;;;;489827;242;2405;-49
2022/08/21 00:55:22;;;;;;;;;;;21.70;49.10;;;;;;490277;242;1329;-50
2022/08/21 00:57:24;;;;;;;;;;;21.70;49.10;;;;;;490247;242;1302;-50
2022/08/21 00:59:25;;;;;;;;;;;21.70;49.10;;;;;;490257;242;1303;-50
2022/08/21 01:01:27;;;;;;;;;;;21.70;49.00;;;;;;489783;242;1378;-50
2022/08/21 01:03:28;;;;;;;;;;;21.70;49.10;;;;;;490080;242;1240;-50
2022/08/21 01:05:29;;;;;;;;;;;21.70;49.10;;;;;;489766;242;1229;-50
2022/08/21 01:07:31;;;;;;;;;;;21.70;49.10;;;;;;490247;242;1242;-50
2022/08/21 01:09:32;;;;;;;;;;;21.70;49.10;;;;;;490217;242;1332;-50
2022/08/21 01:11:33;;;;;;;;;;;21.70;49.00;;;;;;489935;242;2154;-50
2022/08/21 01:13:34;;;;;;;;;;;21.70;49.00;;;;;;489798;242;1282;-50
2022/08/21 01:15:36;;;;;;;;;;;21.70;49.00;;;;;;490257;242;1293;-50
2022/08/21 01:17:37;;;;;;;;;;;21.70;49.10;;;;;;489940;242;1311;-50
2022/08/21 01:19:38;;;;;;;;;;;21.70;49.10;;;;;;490121;242;1243;-51
2022/08/21 01:21:40;;;;;;;;;;;21.70;49.10;;;;;;490173;242;1286;-50
2022/08/21 01:23:41;;;;;;;;;;;21.70;49.00;;;;;;489808;242;1220;-50
2022/08/21 01:25:42;;;;;;;;;;;21.70;49.00;;;;;;490301;242;1239;-51
2022/08/21 01:27:44;;;;;;;;;;;21.70;49.10;;;;;;490315;242;1059;-50
2022/08/21 01:29:45;;;;;;;;;;;21.70;49.10;;;;;;489990;242;1365;-50
2022/08/21 01:31:46;;;;;;;;;;;21.70;49.00;;;;;;489803;242;2200;-50
2022/08/21 01:33:48;;;;;;;;;;;21.70;49.10;;;;;;490281;242;1237;-49
2022/08/21 01:35:49;;;;;;;;;;;21.70;49.10;;;;;;489891;242;1310;-50
2022/08/21 01:37:50;;;;;;;;;;;21.70;49.10;;;;;;489817;242;1197;-50
2022/08/21 01:39:52;;;;;;;;;;;21.70;49.10;;;;;;490261;242;1208;-50
2022/08/21 01:41:53;;;;;;;;;;;21.70;49.10;;;;;;490239;242;1259;-50
2022/08/21 01:43:54;;;;;;;;;;;21.70;49.00;;;;;;489849;242;1418;-50
2022/08/21 01:45:56;;;;;;;;;;;21.70;49.00;;;;;;490217;242;1593;-50
2022/08/21 01:47:57;;;;;;;;;;;21.70;49.00;;;;;;490170;242;1382;-51
2022/08/21 01:49:58;;;;;;;;;;;21.70;49.10;;;;;;490083;242;1281;-50
2022/08/21 01:52:00;;;;;;;;;;;21.70;49.10;;;;;;489802;242;2142;-50
2022/08/21 01:54:01;;;;;;;;;;;21.70;49.10;;;;;;489757;242;1277;-50
2022/08/21 01:56:02;;;;;;;;;;;21.70;49.10;;;;;;489771;242;1296;-50
2022/08/21 01:58:04;;;;;;;;;;;21.70;49.10;;;;;;489869;242;1340;-50
2022/08/21 02:00:05;;;;;;;;;;;21.70;49.10;;;;;;490184;242;1288;-50
2022/08/21 02:02:06;;;;;;;;;;;21.70;49.10;;;;;;489990;242;1227;-50
2022/08/21 02:04:08;;;;;;;;;;;21.60;49.00;;;;;;490272;242;1403;-51
2022/08/21 02:06:09;;;;;;;;;;;21.70;49.10;;;;;;489913;242;1311;-50
2022/08/21 02:08:10;;;;;;;;;;;21.70;49.10;;;;;;490049;242;1323;-50
2022/08/21 02:10:12;;;;;;;;;;;21.70;49.10;;;;;;490264;242;1277;-50
2022/08/21 02:12:13;;;;;;;;;;;21.70;49.10;;;;;;490262;242;2157;-50
2022/08/21 02:14:14;;;;;;;;;;;21.70;49.10;;;;;;490297;242;1270;-50
2022/08/21 02:16:16;;;;;;;;;;;21.70;49.10;;;;;;489823;242;1263;-50
2022/08/21 02:18:18;;;;;;;;;;;21.70;49.10;;;;;;489847;242;1331;-50
2022/08/21 02:20:18;;;;;;;;;;;21.70;49.10;;;;;;490141;242;1425;-50
2022/08/21 02:22:20;;;;;;;;;;;21.70;49.10;;;;;;490241;242;1375;-50
2022/08/21 02:24:21;;;;;;;;;;;21.70;49.10;;;;;;489799;242;1309;-50
2022/08/21 02:26:22;;;;;;;;;;;21.70;49.10;;;;;;490294;242;1302;-50
2022/08/21 02:28:24;;;;;;;;;;;21.70;49.10;;;;;;489842;242;1290;-49
2022/08/21 02:30:25;;;;;;;;;;;21.70;49.20;;;;;;490287;242;1275;-50
2022/08/21 02:32:26;;;;;;;;;;;21.70;49.20;;;;;;489809;242;2166;-50
2022/08/21 02:34:28;;;;;;;;;;;21.70;49.10;;;;;;489806;242;1200;-50
2022/08/21 02:36:29;;;;;;;;;;;21.70;49.20;;;;;;489950;242;1320;-50
2022/08/21 02:38:30;;;;;;;;;;;21.70;49.10;;;;;;490259;242;1288;-50
2022/08/21 02:40:32;;;;;;;;;;;21.70;49.10;;;;;;490280;242;1418;-50
2022/08/21 02:42:33;;;;;;;;;;;21.70;49.10;;;;;;489817;242;2045;-50
2022/08/21 02:44:34;;;;;;;;;;;21.70;49.10;;;;;;490082;242;1327;-50
2022/08/21 02:46:36;;;;;;;;;;;21.70;49.10;;;;;;490315;242;1344;-51
2022/08/21 02:48:37;;;;;;;;;;;21.70;49.10;;;;;;490285;242;1275;-49
2022/08/21 02:50:38;;;;;;;;;;;21.70;49.10;;;;;;489805;242;1226;-50
2022/08/21 02:52:40;;;;;;;;;;;21.70;49.20;;;;;;490289;242;2161;-49
2022/08/21 02:54:41;;;;;;;;;;;21.70;49.10;;;;;;489815;242;1263;-50
2022/08/21 02:56:42;;;;;;;;;;;21.60;49.10;;;;;;490272;242;1321;-49
2022/08/21 02:58:44;;;;;;;;;;;21.70;49.10;;;;;;490282;242;1285;-50
2022/08/21 03:00:45;;;;;;;;;;;21.70;49.10;;;;;;489950;242;1294;-50
2022/08/21 03:02:46;;;;;;;;;;;21.60;49.00;;;;;;490255;242;1281;-50
2022/08/21 03:04:48;;;;;;;;;;;21.70;49.10;;;;;;489905;242;1280;-50
2022/08/21 03:06:49;;;;;;;;;;;21.70;49.20;;;;;;489936;242;1222;-50
2022/08/21 03:08:50;;;;;;;;;;;21.70;49.20;;;;;;489779;242;1354;-50
2022/08/21 03:10:52;;;;;;;;;;;21.60;49.10;;;;;;489885;242;1198;-50
2022/08/21 03:12:54;;;;;;;;;;;21.60;49.10;;;;;;490113;242;2170;-50
2022/08/21 03:14:54;;;;;;;;;;;21.60;49.10;;;;;;489805;242;2223;-50
2022/08/21 03:16:56;;;;;;;;;;;21.60;49.10;;;;;;490262;242;1253;-50
2022/08/21 03:18:57;;;;;;;;;;;21.70;49.10;;;;;;490279;242;1244;-50
2022/08/21 03:20:58;;;;;;;;;;;21.70;49.10;;;;;;490206;242;1080;-50
2022/08/21 03:23:00;;;;;;;;;;;21.70;49.10;;;;;;489815;242;1127;-50
2022/08/21 03:25:01;;;;;;;;;;;21.70;49.10;;;;;;489808;242;1269;-50
2022/08/21 03:27:02;;;;;;;;;;;21.70;49.10;;;;;;490269;242;1271;-51
2022/08/21 03:29:05;;;;;;;;;;;21.70;49.10;;;;;;490268;242;1308;-50
2022/08/21 03:31:05;;;;;;;;;;;21.70;49.10;;;;;;489830;242;1938;-50
2022/08/21 03:33:07;;;;;;;;;;;21.70;49.10;;;;;;489815;242;2197;-50
2022/08/21 03:35:08;;;;;;;;;;;21.70;49.10;;;;;;490267;242;1237;-50
2022/08/21 03:37:10;;;;;;;;;;;21.70;49.10;;;;;;489960;242;1337;-50
2022/08/21 03:39:11;;;;;;;;;;;21.70;49.10;;;;;;489781;242;1496;-50
2022/08/21 03:41:12;;;;;;;;;;;21.70;49.20;;;;;;490268;242;1275;-50
2022/08/21 03:43:14;;;;;;;;;;;21.70;49.10;;;;;;490211;242;1251;-50
2022/08/21 03:45:15;;;;;;;;;;;21.70;49.10;;;;;;489772;242;1281;-51
2022/08/21 03:47:16;;;;;;;;;;;21.60;49.10;;;;;;490219;242;1334;-50
2022/08/21 03:49:18;;;;;;;;;;;21.60;49.10;;;;;;490147;242;1377;-50
2022/08/21 03:51:19;;;;;;;;;;;21.70;49.10;;;;;;490154;242;1313;-50
2022/08/21 03:53:20;;;;;;;;;;;21.60;49.10;;;;;;490199;242;2138;-50
2022/08/21 03:55:21;;;;;;;;;;;21.70;49.20;;;;;;490085;242;1271;-49
2022/08/21 03:57:23;;;;;;;;;;;21.60;49.10;;;;;;490227;242;1387;-50
2022/08/21 03:59:24;;;;;;;;;;;21.60;49.20;;;;;;490225;242;1284;-50
2022/08/21 04:01:26;;;;;;;;;;;21.60;49.10;;;;;;489748;242;1237;-50
2022/08/21 04:03:27;;;;;;;;;;;21.70;49.20;;;;;;490155;242;1318;-51
2022/08/21 04:05:29;;;;;;;;;;;21.70;49.10;;;;;;490252;242;1374;-50
2022/08/21 04:07:29;;;;;;;;;;;21.70;49.10;;;;;;489862;242;2380;-51
2022/08/21 04:09:31;;;;;;;;;;;21.70;49.10;;;;;;490139;242;1297;-50
2022/08/21 04:11:32;;;;;;;;;;;21.70;49.10;;;;;;490048;242;1353;-50
2022/08/21 04:13:33;;;;;;;;;;;21.70;49.10;;;;;;490227;242;2122;-50
2022/08/21 04:15:35;;;;;;;;;;;21.60;49.10;;;;;;489794;242;1332;-51
2022/08/21 04:17:36;;;;;;;;;;;21.60;49.10;;;;;;489875;242;1324;-49
2022/08/21 04:19:37;;;;;;;;;;;21.70;49.20;;;;;;490242;242;1344;-50
2022/08/21 04:21:39;;;;;;;;;;;21.70;49.10;;;;;;490148;242;1287;-50
2022/08/21 04:23:40;;;;;;;;;;;21.70;49.10;;;;;;490207;242;1304;-50
2022/08/21 04:25:41;;;;;;;;;;;21.70;49.20;;;;;;490015;242;1240;-50
2022/08/21 04:27:43;;;;;;;;;;;21.70;49.10;;;;;;489882;242;1275;-50
2022/08/21 04:29:44;;;;;;;;;;;21.60;49.10;;;;;;489777;242;1204;-50
2022/08/21 04:31:45;;;;;;;;;;;21.70;49.20;;;;;;489792;242;1474;-50
2022/08/21 04:33:47;;;;;;;;;;;21.70;49.10;;;;;;489962;242;2193;-50
2022/08/21 04:35:48;;;;;;;;;;;21.60;49.10;;;;;;489775;242;1262;-50
2022/08/21 04:37:49;;;;;;;;;;;21.70;49.10;;;;;;489970;242;1276;-50
2022/08/21 04:39:51;;;;;;;;;;;21.70;49.20;;;;;;489867;242;1367;-51
2022/08/21 04:41:52;;;;;;;;;;;21.70;49.10;;;;;;490187;242;1244;-50
2022/08/21 04:43:54;;;;;;;;;;;21.70;49.20;;;;;;490272;242;1307;-50
2022/08/21 04:45:55;;;;;;;;;;;21.70;49.10;;;;;;489801;242;1716;-50
2022/08/21 04:47:57;;;;;;;;;;;21.70;49.10;;;;;;490261;242;1353;-50
2022/08/21 04:49:58;;;;;;;;;;;21.70;49.20;;;;;;489820;242;1258;-50
2022/08/21 04:51:59;;;;;;;;;;;21.70;49.20;;;;;;489805;242;2197;-50
2022/08/21 04:54:01;;;;;;;;;;;21.60;49.10;;;;;;490261;242;1051;-49
2022/08/21 04:56:02;;;;;;;;;;;21.60;49.10;;;;;;489838;242;1079;-50
2022/08/21 04:58:03;;;;;;;;;;;21.60;49.10;;;;;;490281;242;1387;-50
2022/08/21 05:00:05;;;;;;;;;;;21.60;49.20;;;;;;490286;242;1090;-50
2022/08/21 05:02:06;;;;;;;;;;;21.60;49.20;;;;;;489828;242;1275;-50
2022/08/21 05:04:07;;;;;;;;;;;21.70;49.20;;;;;;489809;242;1272;-50
2022/08/21 05:06:09;;;;;;;;;;;21.60;49.20;;;;;;489909;242;1200;-50
2022/08/21 05:08:10;;;;;;;;;;;21.60;49.20;;;;;;490033;242;1339;-50
2022/08/21 05:10:11;;;;;;;;;;;21.70;49.30;;;;;;489930;242;1343;-50
2022/08/21 05:12:13;;;;;;;;;;;21.60;49.20;;;;;;489790;242;2192;-50
2022/08/21 05:14:14;;;;;;;;;;;21.60;49.10;;;;;;489799;242;1330;-50
2022/08/21 05:16:16;;;;;;;;;;;21.60;49.10;;;;;;490078;242;1412;-50
2022/08/21 05:18:17;;;;;;;;;;;21.60;49.20;;;;;;490133;242;1225;-50
2022/08/21 05:20:19;;;;;;;;;;;21.60;49.20;;;;;;490002;242;1511;-50
2022/08/21 05:22:20;;;;;;;;;;;21.60;49.20;;;;;;490236;242;1294;-50
2022/08/21 05:24:21;;;;;;;;;;;21.60;49.20;;;;;;490020;242;1282;-50
2022/08/21 05:26:23;;;;;;;;;;;21.60;49.20;;;;;;490277;242;1244;-50
2022/08/21 05:28:25;;;;;;;;;;;21.60;49.20;;;;;;490268;242;1279;-50
2022/08/21 05:30:25;;;;;;;;;;;21.60;49.20;;;;;;489837;242;1679;-50
2022/08/21 05:32:27;;;;;;;;;;;21.60;49.10;;;;;;489825;242;2146;-50
2022/08/21 05:34:28;;;;;;;;;;;21.70;49.20;;;;;;489826;242;1256;-50
2022/08/21 05:36:29;;;;;;;;;;;21.60;49.20;;;;;;490298;242;1216;-50
2022/08/21 05:38:31;;;;;;;;;;;21.60;49.10;;;;;;490032;242;1288;-50
2022/08/21 05:40:32;;;;;;;;;;;21.60;49.20;;;;;;490281;242;1261;-50
2022/08/21 05:42:33;;;;;;;;;;;21.60;49.20;;;;;;489896;242;1280;-50
2022/08/21 05:44:35;;;;;;;;;;;21.60;49.20;;;;;;490296;242;1301;-50
2022/08/21 05:46:36;;;;;;;;;;;21.60;49.20;;;;;;490294;242;1255;-50
2022/08/21 05:48:37;;;;;;;;;;;21.60;49.20;;;;;;490291;242;1448;-50
2022/08/21 05:50:39;;;;;;;;;;;21.60;49.20;;;;;;489930;242;1365;-50
2022/08/21 05:52:40;;;;;;;;;;;21.60;49.20;;;;;;490171;242;2146;-50
2022/08/21 05:54:41;;;;;;;;;;;21.60;49.20;;;;;;489810;242;1258;-50
2022/08/21 05:56:44;;;;;;;;;;;21.60;49.20;;;;;;490294;242;1188;-50
2022/08/21 05:58:45;;;;;;;;;;;21.60;49.20;;;;;;489835;242;1205;-50
2022/08/21 06:00:46;;;;;;;;;;;21.60;49.20;;;;;;490271;242;1100;-50
2022/08/21 06:02:48;;;;;;;;;;;21.60;49.20;;;;;;490318;242;1248;-50
2022/08/21 06:04:49;;;;;;;;;;;21.60;49.10;;;;;;490131;242;1126;-49
2022/08/21 06:06:50;;;;;;;;;;;21.70;49.20;;;;;;490120;242;1296;-50
2022/08/21 06:08:52;;;;;;;;;;;21.60;49.10;;;;;;490066;242;1322;-51
2022/08/21 06:10:53;;;;;;;;;;;21.60;49.20;;;;;;490263;242;1819;-50
2022/08/21 06:12:55;;;;;;;;;;;21.60;49.20;;;;;;490264;242;2209;-51
2022/08/21 06:14:56;;;;;;;;;;;21.70;49.20;;;;;;489796;242;1249;-50
2022/08/21 06:16:57;;;;;;;;;;;21.60;49.20;;;;;;490037;242;1297;-50
2022/08/21 06:18:59;;;;;;;;;;;21.60;49.20;;;;;;489807;242;1335;-50
2022/08/21 06:21:00;;;;;;;;;;;21.60;49.20;;;;;;489829;242;1325;-50
2022/08/21 06:23:02;;;;;;;;;;;21.60;49.20;;;;;;490278;242;1371;-50
2022/08/21 06:25:03;;;;;;;;;;;21.60;49.20;;;;;;489819;242;1182;-50
2022/08/21 06:27:05;;;;;;;;;;;21.60;49.20;;;;;;490294;242;1271;-50
2022/08/21 06:29:07;;;;;;;;;;;21.60;49.20;;;;;;490289;242;1423;-50
2022/08/21 06:31:07;;;;;;;;;;;21.60;49.20;;;;;;489846;242;2311;-50
2022/08/21 06:33:09;;;;;;;;;;;21.60;49.20;;;;;;490278;242;2149;-49
2022/08/21 06:35:11;;;;;;;;;;;21.60;49.20;;;;;;490240;242;1181;-50
2022/08/21 06:37:11;;;;;;;;;;;21.60;49.20;;;;;;490152;242;1539;-50
2022/08/21 06:39:13;;;;;;;;;;;21.60;49.20;;;;;;489778;242;1192;-50
2022/08/21 06:41:15;;;;;;;;;;;21.60;49.30;;;;;;489822;242;1158;-50
2022/08/21 06:43:16;;;;;;;;;;;21.60;49.20;;;;;;490259;242;1629;-50
2022/08/21 06:45:17;;;;;;;;;;;21.60;49.20;;;;;;490275;242;1225;-50
2022/08/21 06:47:19;;;;;;;;;;;21.60;49.20;;;;;;490254;242;1263;-51
2022/08/21 06:49:20;;;;;;;;;;;21.60;49.30;;;;;;490264;242;1283;-50
2022/08/21 06:51:21;;;;;;;;;;;21.60;49.20;;;;;;490219;242;1256;-51
2022/08/21 06:53:23;;;;;;;;;;;21.60;49.20;;;;;;490203;242;2166;-50
2022/08/21 06:55:24;;;;;;;;;;;21.60;49.20;;;;;;489829;242;1423;-50
2022/08/21 06:57:25;;;;;;;;;;;21.60;49.20;;;;;;490099;242;1298;-50
2022/08/21 06:59:27;;;;;;;;;;;21.60;49.20;;;;;;490283;242;1215;-50
2022/08/21 07:01:28;;;;;;;;;;;21.60;49.10;;;;;;490262;242;1243;-50
2022/08/21 07:03:29;;;;;;;;;;;21.60;49.20;;;;;;490235;242;1281;-50
2022/08/21 07:05:31;;;;;;;;;;;21.60;49.20;;;;;;490077;242;1288;-50
2022/08/21 07:07:32;;;;;;;;;;;21.60;49.20;;;;;;489817;242;1294;-50
2022/08/21 07:09:33;;;;;;;;;;;21.60;49.20;;;;;;489849;242;1406;-50
2022/08/21 07:11:35;;;;;;;;;;;21.60;49.20;;;;;;489819;242;1356;-50
2022/08/21 07:13:36;;;;;;;;;;;21.60;49.20;;;;;;490192;242;2161;-50
2022/08/21 07:15:37;;;;;;;;;;;21.60;49.20;;;;;;490070;242;1432;-49
2022/08/21 07:17:39;;;;;;;;;;;21.60;49.30;;;;;;490211;242;1641;-50
2022/08/21 07:19:40;;;;;;;;;;;21.60;49.30;;;;;;490256;242;1241;-50
2022/08/21 07:21:41;;;;;;;;;;;21.60;49.30;;;;;;489793;242;1282;-50
2022/08/21 07:23:43;;;;;;;;;;;21.60;49.30;;;;;;490232;242;1424;-50
2022/08/21 07:25:44;;;;;;;;;;;21.60;49.20;;;;;;489833;242;1277;-50
2022/08/21 07:27:45;;;;;;;;;;;21.60;49.20;;;;;;490051;242;1286;-50
2022/08/21 07:29:47;;;;;;;;;;;21.60;49.20;;;;;;490114;242;1304;-50
2022/08/21 07:31:48;;;;;;;;;;;21.60;49.20;;;;;;489805;242;1234;-50
2022/08/21 07:33:49;;;;;;;;;;;21.60;49.30;;;;;;489790;242;2201;-50
2022/08/21 07:35:51;;;;;;;;;;;21.60;49.30;;;;;;490261;242;1291;-50
2022/08/21 07:37:52;;;;;;;;;;;21.60;49.20;;;;;;490277;242;1292;-50
2022/08/21 07:39:54;;;;;;;;;;;21.60;49.20;;;;;;489759;242;1400;-50
2022/08/21 07:41:55;;;;;;;;;;;21.60;49.10;;;;;;490275;242;1268;-50
2022/08/21 07:43:57;;;;;;;;;;;21.60;49.20;;;;;;490183;242;1305;-50
2022/08/21 07:45:57;;;;;;;;;;;21.60;49.20;;;;;;489785;242;2370;-50
2022/08/21 07:47:59;;;;;;;;;;;21.60;49.20;;;;;;489786;242;1346;-50
2022/08/21 07:50:00;;;;;;;;;;;21.60;49.30;;;;;;489790;242;1243;-50
2022/08/21 07:52:01;;;;;;;;;;;21.50;49.40;;;;;;489904;242;1268;-50
2022/08/21 07:54:03;;;;;;;;;;;21.50;49.60;;;;;;490241;242;2149;-50
2022/08/21 07:56:04;;;;;;;;;;;21.50;49.70;;;;;;489879;242;1278;-50
2022/08/21 07:58:06;;;;;;;;;;;21.40;49.80;;;;;;490017;242;1304;-50
2022/08/21 08:00:07;;;;;;;;;;;21.40;49.80;;;;;;489829;242;1808;-50
2022/08/21 08:02:09;;;;;;;;;;;21.40;49.90;;;;;;489798;242;1378;-50
2022/08/21 08:04:10;;;;;;;;;;;21.40;49.90;;;;;;490143;242;1330;-50
2022/08/21 08:06:12;;;;;;;;;;;21.30;49.90;;;;;;490277;242;1259;-50
2022/08/21 08:08:13;;;;;;;;;;;21.30;50.00;;;;;;490154;242;1386;-50
2022/08/21 08:10:14;;;;;;;;;;;21.30;50.00;;;;;;490068;242;1223;-50
2022/08/21 08:12:15;;;;;;;;;;;21.30;50.00;;;;;;490232;242;1301;-51
2022/08/21 08:14:16;;;;;;;;;;;21.30;50.10;;;;;;490221;242;2166;-50
2022/08/21 08:16:18;;;;;;;;;;;21.30;50.10;;;;;;489968;242;1202;-50
2022/08/21 08:18:19;;;;;;;;;;;21.30;50.10;;;;;;490014;242;1390;-50
2022/08/21 08:20:22;;;;;;;;;;;21.40;50.20;;;;;;490096;242;1211;-49
2022/08/21 08:22:23;;;;;;;;;;;21.30;50.20;;;;;;489823;242;2199;-50
2022/08/21 08:24:23;;;;;;;;;;;21.30;50.10;;;;;;489884;242;2241;-50
2022/08/21 08:26:24;;;;;;;;;;;21.30;50.20;;;;;;489776;242;1209;-50
2022/08/21 08:28:26;;;;;;;;;;;21.30;50.20;;;;;;490245;242;1253;-50
2022/08/21 08:30:27;;;;;;;;;;;21.30;50.20;;;;;;490252;242;1820;-50
2022/08/21 08:32:28;;;;;;;;;;;21.30;50.30;;;;;;490253;242;1261;-50
2022/08/21 08:34:30;;;;;;;;;;;21.30;50.30;;;;;;490030;242;2193;-50
2022/08/21 08:36:31;;;;;;;;;;;21.30;50.40;;;;;;489881;242;1253;-50
2022/08/21 08:38:33;;;;;;;;;;;21.30;50.40;;;;;;490078;242;1262;-49
2022/08/21 08:40:35;;;;;;;;;;;21.30;50.40;;;;;;489767;242;1245;-51
2022/08/21 08:42:36;;;;;;;;;;;21.30;50.40;;;;;;489776;242;2268;-50
2022/08/21 08:44:37;;;;;;;;;;;21.30;50.40;;;;;;489790;242;1413;-50
2022/08/21 08:46:38;;;;;;;;;;;21.30;50.40;;;;;;489778;242;1290;-50
2022/08/21 08:48:40;;;;;;;;;;;21.30;50.40;;;;;;489973;242;1267;-50
2022/08/21 08:50:41;;;;;;;;;;;21.30;50.40;;;;;;490249;242;1863;-50
2022/08/21 08:52:43;;;;;;;;;;;21.30;50.40;;;;;;490235;242;1317;-50
2022/08/21 08:54:44;;;;;;;;;;;21.30;50.50;;;;;;489859;242;2174;-50
2022/08/21 08:56:46;;;;;;;;;;;21.30;50.50;;;;;;489869;242;1266;-50
2022/08/21 08:58:47;;;;;;;;;;;21.30;50.50;;;;;;490154;242;1475;-50
2022/08/21 09:00:48;;;;;;;;;;;21.30;50.50;;;;;;490137;242;1286;-50
2022/08/21 09:02:49;;;;;;;;;;;21.30;50.60;;;;;;490259;242;1413;-50
2022/08/21 09:04:51;;;;;;;;;;;21.30;50.50;;;;;;489830;242;1216;-50
2022/08/21 09:06:52;;;;;;;;;;;21.30;50.50;;;;;;490127;242;1248;-50
2022/08/21 09:08:54;;;;;;;;;;;21.30;50.60;;;;;;490086;242;1289;-50
2022/08/21 09:10:55;;;;;;;;;;;21.30;50.60;;;;;;489818;242;1309;-50
2022/08/21 09:12:56;;;;;;;;;;;21.30;50.70;;;;;;490266;242;1331;-50
2022/08/21 09:14:57;;;;;;;;;;;21.30;50.60;;;;;;490276;242;2157;-50
2022/08/21 09:16:59;;;;;;;;;;;21.30;50.60;;;;;;490286;242;1304;-50
2022/08/21 09:19:00;;;;;;;;;;;21.30;50.60;;;;;;490183;242;1314;-50
2022/08/21 09:21:02;;;;;;;;;;;21.30;50.70;;;;;;490281;242;1344;-50
2022/08/21 09:23:03;;;;;;;;;;;21.20;50.70;;;;;;490073;242;1321;-50
2022/08/21 09:25:07;;;;;;;;;;;21.30;50.80;;;;;;489878;242;1267;-51
2022/08/21 09:27:06;;;;;;;;;;;21.20;50.70;;;;;;489940;242;2125;-50
2022/08/21 09:29:07;;;;;;;;;;;21.30;50.80;;;;;;490042;242;1272;-51
2022/08/21 09:31:08;;;;;;;;;;;21.30;50.70;;;;;;490248;242;1303;-50
2022/08/21 09:33:10;;;;;;;;;;;21.30;50.70;;;;;;489876;242;1283;-50
2022/08/21 09:35:11;;;;;;;;;;;21.20;50.70;;;;;;489832;242;2176;-50
2022/08/21 09:37:12;;;;;;;;;;;21.30;50.80;;;;;;490097;242;1487;-50
2022/08/21 09:39:14;;;;;;;;;;;21.30;50.80;;;;;;490271;242;1265;-51
2022/08/21 09:41:15;;;;;;;;;;;21.30;50.80;;;;;;490155;242;1399;-49
2022/08/21 09:43:17;;;;;;;;;;;21.20;50.80;;;;;;490316;242;1356;-50
2022/08/21 09:45:18;;;;;;;;;;;21.20;50.80;;;;;;490308;242;1278;-50
2022/08/21 09:47:20;;;;;;;;;;;21.30;50.80;;;;;;490320;242;1258;-50
2022/08/21 09:49:21;;;;;;;;;;;21.30;50.80;;;;;;490306;242;2120;-50
2022/08/21 09:51:22;;;;;;;;;;;21.30;50.80;;;;;;490317;242;1399;-50
2022/08/21 09:53:24;;;;;;;;;;;21.30;50.90;;;;;;490292;242;1038;-50
2022/08/21 09:57:46;;;;;;;;;;;21.30;51.00;;;;;;489959;241;1063;-50
2022/08/21 09:59:45;;;;;;;;;;;21.20;50.90;;;;;;489968;242;2453;-49
2022/08/21 10:01:47;;;;;;;;;;;21.20;51.00;;;;;;490225;242;1287;-49
2022/08/21 10:03:48;;;;;;;;;;;21.20;50.90;;;;;;489829;242;1284;-50
2022/08/21 10:05:49;;;;;;;;;;;21.20;50.90;;;;;;490274;242;1340;-50
2022/08/21 10:07:51;;;;;;;;;;;21.20;51.00;;;;;;490281;242;1367;-50
2022/08/21 10:09:52;;;;;;;;;;;21.20;51.00;;;;;;490232;242;1254;-50
2022/08/21 10:11:53;;;;;;;;;;;21.30;51.00;;;;;;489807;242;1351;-50
2022/08/21 10:13:55;;;;;;;;;;;21.20;51.00;;;;;;489999;242;2154;-50
2022/08/21 10:15:56;;;;;;;;;;;21.30;51.00;;;;;;490263;242;1268;-49
2022/08/21 10:17:57;;;;;;;;;;;21.30;51.00;;;;;;489823;242;1689;-50
2022/08/21 10:19:59;;;;;;;;;;;21.20;51.00;;;;;;489993;242;1403;-50
2022/08/21 10:22:00;;;;;;;;;;;21.20;51.00;;;;;;490272;242;1313;-50
2022/08/21 10:24:01;;;;;;;;;;;21.20;51.00;;;;;;489769;242;1288;-50
2022/08/21 10:26:03;;;;;;;;;;;21.20;51.00;;;;;;490266;242;1191;-50
2022/08/21 10:28:04;;;;;;;;;;;21.20;51.00;;;;;;489894;242;1310;-50
2022/08/21 10:30:05;;;;;;;;;;;21.20;51.10;;;;;;490271;242;1254;-50
2022/08/21 10:32:07;;;;;;;;;;;21.20;51.10;;;;;;490048;242;1273;-50
2022/08/21 10:34:08;;;;;;;;;;;21.20;51.10;;;;;;490258;242;2185;-49
2022/08/21 10:36:10;;;;;;;;;;;21.30;51.10;;;;;;489814;242;1219;-50
2022/08/21 10:38:11;;;;;;;;;;;21.20;51.00;;;;;;490266;242;1352;-50
2022/08/21 10:40:12;;;;;;;;;;;21.20;51.10;;;;;;490247;242;1309;-51
2022/08/21 10:42:14;;;;;;;;;;;21.20;51.10;;;;;;490046;242;1452;-50
2022/08/21 10:44:15;;;;;;;;;;;21.30;51.10;;;;;;490110;242;1256;-50
2022/08/21 10:46:16;;;;;;;;;;;21.20;51.10;;;;;;489778;242;1297;-50
2022/08/21 10:48:18;;;;;;;;;;;21.20;51.10;;;;;;489791;242;1305;-50
2022/08/21 10:50:19;;;;;;;;;;;21.20;51.10;;;;;;490233;242;1332;-50
2022/08/21 10:52:20;;;;;;;;;;;21.20;51.10;;;;;;489780;242;1273;-50
2022/08/21 10:54:22;;;;;;;;;;;21.20;51.20;;;;;;489738;242;2150;-50
2022/08/21 10:56:23;;;;;;;;;;;21.20;51.20;;;;;;490223;242;2264;-50
2022/08/21 10:58:24;;;;;;;;;;;21.20;51.10;;;;;;489755;242;1309;-50
2022/08/21 11:00:26;;;;;;;;;;;21.20;51.20;;;;;;489772;242;1268;-51
2022/08/21 11:02:28;;;;;;;;;;;21.20;51.10;;;;;;490230;242;1260;-50
2022/08/21 11:04:29;;;;;;;;;;;21.20;51.20;;;;;;490053;242;1335;-50
2022/08/21 11:06:30;;;;;;;;;;;21.20;51.10;;;;;;489981;242;1324;-51
2022/08/21 11:08:32;;;;;;;;;;;21.20;51.20;;;;;;489846;242;1366;-50
2022/08/21 11:10:33;;;;;;;;;;;21.20;51.20;;;;;;490243;242;1335;-50
2022/08/21 11:12:34;;;;;;;;;;;21.20;51.20;;;;;;490158;242;1276;-50
2022/08/21 11:14:36;;;;;;;;;;;21.20;51.20;;;;;;490231;242;2197;-50
2022/08/21 11:16:37;;;;;;;;;;;21.20;51.20;;;;;;490246;242;1307;-50
2022/08/21 11:18:38;;;;;;;;;;;21.20;51.20;;;;;;490061;242;1431;-50
2022/08/21 11:20:40;;;;;;;;;;;21.20;51.20;;;;;;490269;242;1331;-50
2022/08/21 11:22:41;;;;;;;;;;;21.20;51.30;;;;;;490008;242;1326;-50
2022/08/21 11:24:44;;;;;;;;;;;21.20;51.30;;;;;;489930;242;1265;-50
2022/08/21 11:26:44;;;;;;;;;;;21.20;51.30;;;;;;490259;242;2173;-50
2022/08/21 11:28:45;;;;;;;;;;;21.20;51.30;;;;;;489980;242;1252;-50
2022/08/21 11:30:46;;;;;;;;;;;21.20;51.30;;;;;;490291;242;1289;-50
2022/08/21 11:32:48;;;;;;;;;;;21.20;51.30;;;;;;489890;242;1309;-50
2022/08/21 11:34:49;;;;;;;;;;;21.20;51.30;;;;;;489801;242;2233;-50
2022/08/21 11:36:50;;;;;;;;;;;21.20;51.30;;;;;;490259;242;1280;-50
2022/08/21 11:38:52;;;;;;;;;;;21.20;51.30;;;;;;489993;242;1333;-50
2022/08/21 11:40:53;;;;;;;;;;;21.20;51.30;;;;;;490257;242;1259;-50
2022/08/21 11:42:54;;;;;;;;;;;21.20;51.30;;;;;;489776;242;1359;-50
2022/08/21 11:44:56;;;;;;;;;;;21.20;51.30;;;;;;490228;242;1338;-50
2022/08/21 11:46:57;;;;;;;;;;;21.20;51.30;;;;;;490244;242;1308;-50
2022/08/21 11:48:59;;;;;;;;;;;21.20;51.40;;;;;;490240;242;1251;-50
2022/08/21 11:51:00;;;;;;;;;;;21.20;51.40;;;;;;490248;242;1228;-50
2022/08/21 11:53:01;;;;;;;;;;;21.20;51.40;;;;;;490057;242;1284;-50
2022/08/21 11:55:03;;;;;;;;;;;21.20;51.40;;;;;;489811;242;2193;-50
2022/08/21 11:57:04;;;;;;;;;;;21.30;51.40;;;;;;489796;242;1312;-50
2022/08/21 11:59:05;;;;;;;;;;;21.20;51.40;;;;;;489876;242;1241;-50